createdAt,value
2018-06-04T00:01:20.162Z,20.00
2018-06-04T00:03:52.707Z,20.00
2018-06-04T00:06:25.222Z,20.00
2018-06-04T00:08:57.767Z,19.90
2018-06-04T00:11:31.046Z,19.90
2018-06-04T00:14:03.591Z,19.90
2018-06-04T00:16:36.114Z,19.90
2018-06-04T00:19:08.653Z,19.80
2018-06-04T00:21:41.166Z,19.80
2018-06-04T00:24:13.690Z,19.80
2018-06-04T00:26:46.983Z,19.70
2018-06-04T00:29:19.503Z,19.70
2018-06-04T00:31:52.030Z,19.70
2018-06-04T00:34:24.562Z,19.70
2018-06-04T00:36:57.085Z,19.70
2018-06-04T00:39:29.630Z,19.70
2018-06-04T00:42:02.940Z,19.60
2018-06-04T00:44:36.256Z,19.60
2018-06-04T00:47:08.779Z,19.50
2018-06-04T00:49:42.083Z,19.60
2018-06-04T00:52:14.594Z,19.50
2018-06-04T00:54:47.904Z,19.50
2018-06-04T00:57:21.202Z,19.50
2018-06-04T00:59:53.722Z,19.50
2018-06-04T01:02:26.252Z,19.50
2018-06-04T01:04:58.795Z,19.50
2018-06-04T01:07:31.310Z,19.50
2018-06-04T01:10:03.853Z,19.40
2018-06-04T01:12:40.103Z,19.40
2018-06-04T01:15:12.678Z,19.40
2018-06-04T01:17:45.223Z,19.40
2018-06-04T01:20:17.796Z,19.40
2018-06-04T01:22:51.178Z,19.40
2018-06-04T01:25:23.729Z,19.40
2018-06-04T01:27:56.260Z,19.30
2018-06-04T01:30:29.572Z,19.30
2018-06-04T01:33:02.090Z,19.30
2018-06-04T01:35:34.659Z,19.30
2018-06-04T01:38:07.188Z,19.30
2018-06-04T01:40:40.518Z,19.20
2018-06-04T01:43:13.825Z,19.20
2018-06-04T01:45:46.398Z,19.20
2018-06-04T01:48:18.916Z,19.20
2018-06-04T01:50:51.678Z,19.20
2018-06-04T01:53:24.211Z,19.20
2018-06-04T01:55:56.772Z,19.10
2018-06-04T01:58:29.298Z,19.10
2018-06-04T02:01:01.873Z,19.10
2018-06-04T02:03:34.527Z,19.10
2018-06-04T02:06:07.073Z,19.10
2018-06-04T02:08:39.606Z,19.00
2018-06-04T02:11:12.136Z,19.00
2018-06-04T02:13:44.666Z,19.00
2018-06-04T02:16:17.203Z,18.90
2018-06-04T02:18:49.723Z,18.90
2018-06-04T02:21:22.302Z,18.80
2018-06-04T02:23:54.862Z,18.80
2018-06-04T02:26:27.410Z,18.80
2018-06-04T02:29:00.055Z,18.70
2018-06-04T02:31:32.566Z,18.70
2018-06-04T02:34:05.087Z,18.70
2018-06-04T02:36:38.768Z,18.60
2018-06-04T02:39:11.294Z,18.60
2018-06-04T02:41:43.972Z,18.60
2018-06-04T02:44:16.491Z,18.50
2018-06-04T02:46:52.954Z,18.50
2018-06-04T02:49:25.482Z,18.50
2018-06-04T02:51:57.999Z,18.40
2018-06-04T02:54:30.511Z,18.50
2018-06-04T02:57:03.052Z,18.40
2018-06-04T02:59:35.588Z,18.40
2018-06-04T03:02:08.237Z,18.40
2018-06-04T03:04:40.766Z,18.30
2018-06-04T03:07:13.339Z,18.30
2018-06-04T03:09:46.630Z,18.20
2018-06-04T03:12:19.169Z,18.20
2018-06-04T03:14:52.451Z,18.00
2018-06-04T03:17:25.004Z,18.00
2018-06-04T03:19:57.566Z,18.00
2018-06-04T03:22:30.074Z,17.90
2018-06-04T03:25:02.599Z,17.90
2018-06-04T03:27:35.882Z,17.80
2018-06-04T03:30:08.462Z,17.70
2018-06-04T03:32:41.006Z,17.70
2018-06-04T03:35:13.533Z,17.60
2018-06-04T03:37:46.081Z,17.60
2018-06-04T03:40:18.605Z,17.50
2018-06-04T03:42:51.133Z,17.40
2018-06-04T03:45:24.410Z,17.40
2018-06-04T03:47:56.930Z,17.40
2018-06-04T03:50:29.458Z,17.50
2018-06-04T03:53:02.766Z,17.60
2018-06-04T03:55:36.047Z,17.60
2018-06-04T03:58:08.590Z,17.60
2018-06-04T04:00:41.139Z,17.70
2018-06-04T04:03:13.690Z,17.80
2018-06-04T04:05:46.214Z,17.80
2018-06-04T04:08:18.800Z,17.90
2018-06-04T04:10:51.431Z,17.90
2018-06-04T04:13:23.968Z,17.90
2018-06-04T04:15:56.494Z,18.00
2018-06-04T04:18:29.063Z,18.00
2018-06-04T04:21:01.570Z,18.00
2018-06-04T04:23:34.122Z,18.00
2018-06-04T04:26:06.649Z,18.00
2018-06-04T04:28:39.186Z,17.90
2018-06-04T04:31:11.729Z,18.00
2018-06-04T04:33:45.046Z,18.00
2018-06-04T04:36:18.351Z,18.00
2018-06-04T04:38:50.918Z,18.00
2018-06-04T04:41:23.429Z,18.00
2018-06-04T04:43:56.143Z,18.00
2018-06-04T04:46:28.663Z,18.00
2018-06-04T04:49:01.199Z,18.00
2018-06-04T04:51:33.723Z,17.90
2018-06-04T04:54:06.286Z,17.80
2018-06-04T04:56:39.590Z,17.80
2018-06-04T04:59:12.114Z,17.80
2018-06-04T05:01:45.398Z,17.90
2018-06-04T05:04:17.947Z,17.80
2018-06-04T05:06:51.391Z,17.90
2018-06-04T05:09:23.918Z,17.90
2018-06-04T05:11:56.433Z,18.00
2018-06-04T05:14:28.982Z,18.10
2018-06-04T05:17:01.500Z,18.10
2018-06-04T05:19:34.050Z,18.10
2018-06-04T05:22:06.586Z,18.20
2018-06-04T05:24:39.127Z,18.20
2018-06-04T05:27:11.658Z,18.30
2018-06-04T05:29:44.231Z,18.40
2018-06-04T05:32:16.764Z,18.40
2018-06-04T05:34:49.313Z,18.60
2018-06-04T05:37:21.835Z,18.60
2018-06-04T05:39:54.386Z,18.60
2018-06-04T05:42:26.914Z,18.70
2018-06-04T05:44:59.463Z,18.70
2018-06-04T05:47:31.994Z,18.70
2018-06-04T05:50:04.579Z,18.80
2018-06-04T05:52:37.098Z,18.80
2018-06-04T05:55:09.642Z,18.90
2018-06-04T05:57:42.183Z,19.00
2018-06-04T06:00:14.728Z,19.00
2018-06-04T06:02:47.255Z,19.10
2018-06-04T06:05:19.783Z,19.20
2018-06-04T06:07:52.301Z,19.30
2018-06-04T06:10:25.617Z,19.40
2018-06-04T06:12:58.382Z,19.40
2018-06-04T06:15:30.908Z,19.50
2018-06-04T06:18:03.430Z,19.60
2018-06-04T06:20:35.982Z,19.60
2018-06-04T06:23:08.527Z,19.70
2018-06-04T06:25:41.067Z,19.80
2018-06-04T06:28:13.624Z,19.80
2018-06-04T06:30:46.178Z,19.80
2018-06-04T06:33:18.724Z,19.90
2018-06-04T06:35:51.270Z,20.00
2018-06-04T06:38:23.801Z,20.00
2018-06-04T06:40:56.362Z,20.10
2018-06-04T06:43:29.671Z,20.20
2018-06-04T06:46:02.206Z,20.20
2018-06-04T06:48:34.726Z,20.30
2018-06-04T06:51:07.277Z,20.30
2018-06-04T06:53:40.238Z,20.40
2018-06-04T06:56:12.791Z,20.50
2018-06-04T06:58:46.133Z,20.50
2018-06-04T07:01:18.661Z,20.60
2018-06-04T07:03:51.185Z,20.60
2018-06-04T07:06:23.712Z,20.70
2018-06-04T07:08:56.999Z,20.80
2018-06-04T07:11:29.544Z,20.80
2018-06-04T07:14:03.822Z,20.90
2018-06-04T07:16:37.123Z,21.00
2018-06-04T07:19:10.598Z,21.00
2018-06-04T07:21:43.882Z,21.10
2018-06-04T07:24:16.423Z,21.10
2018-06-04T07:26:49.750Z,21.20
2018-06-04T07:29:25.995Z,21.20
2018-06-04T07:31:58.562Z,21.30
2018-06-04T07:34:31.091Z,21.40
2018-06-04T07:37:03.626Z,21.50
2018-06-04T07:39:36.147Z,21.50
2018-06-04T07:42:09.455Z,21.60
2018-06-04T07:44:41.979Z,21.60
2018-06-04T07:47:15.279Z,21.70
2018-06-04T07:49:47.796Z,21.60
2018-06-04T07:52:21.083Z,21.70
2018-06-04T07:54:53.603Z,21.70
2018-06-04T07:57:26.147Z,21.80
2018-06-04T07:59:58.669Z,21.80
2018-06-04T08:02:31.220Z,21.90
2018-06-04T08:05:04.502Z,22.00
2018-06-04T08:07:37.054Z,22.00
2018-06-04T08:10:10.373Z,22.20
2018-06-04T08:12:42.871Z,22.20
2018-06-04T08:15:17.346Z,22.30
2018-06-04T08:17:49.894Z,22.30
2018-06-04T08:20:22.415Z,22.30
2018-06-04T08:22:54.971Z,22.40
2018-06-04T08:25:27.534Z,22.50
2018-06-04T08:28:00.837Z,22.60
2018-06-04T08:30:33.382Z,22.60
2018-06-04T08:33:05.927Z,22.70
2018-06-04T08:35:39.230Z,22.70
2018-06-04T08:38:11.786Z,22.70
2018-06-04T08:40:44.304Z,22.90
2018-06-04T08:43:16.839Z,23.00
2018-06-04T08:45:49.379Z,23.10
2018-06-04T08:48:21.923Z,23.20
2018-06-04T08:50:54.447Z,23.30
2018-06-04T08:53:27.003Z,23.30
2018-06-04T08:55:59.524Z,23.40
2018-06-04T08:58:32.096Z,23.40
2018-06-04T09:01:05.386Z,23.60
2018-06-04T09:03:37.941Z,23.50
2018-06-04T09:06:10.472Z,23.60
2018-06-04T09:08:42.993Z,23.70
2018-06-04T09:11:15.513Z,23.80
2018-06-04T09:13:48.040Z,24.00
2018-06-04T09:16:26.138Z,24.10
2018-06-04T09:18:58.650Z,24.20
2018-06-04T09:21:31.174Z,24.30
2018-06-04T09:24:03.733Z,24.40
2018-06-04T09:26:36.246Z,24.40
2018-06-04T09:29:09.538Z,24.60
2018-06-04T09:31:42.078Z,24.60
2018-06-04T09:34:14.599Z,24.80
2018-06-04T09:36:47.122Z,24.90
2018-06-04T09:39:19.646Z,24.90
2018-06-04T09:41:52.158Z,25.00
2018-06-04T09:44:24.685Z,25.10
2018-06-04T09:46:57.194Z,25.20
2018-06-04T09:49:29.739Z,25.50
2018-06-04T09:52:02.255Z,25.60
2018-06-04T09:54:34.801Z,25.80
2018-06-04T09:57:08.083Z,26.10
2018-06-04T09:59:40.650Z,26.10
2018-06-04T10:02:13.179Z,26.20
2018-06-04T10:04:45.757Z,26.20
2018-06-04T10:07:18.210Z,26.20
2018-06-04T10:09:50.742Z,26.20
2018-06-04T10:12:23.258Z,26.30
2018-06-04T10:14:55.828Z,26.30
2018-06-04T10:17:28.343Z,26.20
2018-06-04T10:20:00.902Z,26.30
2018-06-04T10:22:33.464Z,26.40
2018-06-04T10:25:05.965Z,26.60
2018-06-04T10:27:38.474Z,26.70
2018-06-04T10:30:11.010Z,26.70
2018-06-04T10:32:43.560Z,26.70
2018-06-04T10:35:16.852Z,26.70
2018-06-04T10:37:49.364Z,26.60
2018-06-04T10:40:21.893Z,26.70
2018-06-04T10:42:54.408Z,26.60
2018-06-04T10:45:26.972Z,26.80
2018-06-04T10:47:59.509Z,27.00
2018-06-04T10:50:32.056Z,26.90
2018-06-04T10:53:04.585Z,27.10
2018-06-04T10:55:37.887Z,27.00
2018-06-04T10:58:57.981Z,27.00
2018-06-04T11:01:31.015Z,27.00
2018-06-04T11:04:04.055Z,27.00
2018-06-04T11:06:37.108Z,27.20
2018-06-04T11:09:10.178Z,27.40
2018-06-04T11:11:43.223Z,27.50
2018-06-04T11:14:16.226Z,27.60
2018-06-04T11:16:49.231Z,27.70
2018-06-04T11:19:22.239Z,27.40
2018-06-04T11:21:55.291Z,27.20
2018-06-04T11:24:28.322Z,27.10
2018-06-04T11:27:01.399Z,27.20
2018-06-04T11:29:34.427Z,27.30
2018-06-04T11:32:07.445Z,27.30
2018-06-04T11:34:40.480Z,27.40
2018-06-04T11:37:13.501Z,27.40
2018-06-04T11:39:46.510Z,27.30
2018-06-04T11:42:19.591Z,27.10
2018-06-04T11:44:52.599Z,27.10
2018-06-04T11:47:25.640Z,27.00
2018-06-04T11:49:58.649Z,27.10
2018-06-04T11:52:31.694Z,27.30
2018-06-04T11:55:04.683Z,27.50
2018-06-04T11:57:37.730Z,27.60
2018-06-04T12:00:10.739Z,27.90
2018-06-04T12:02:43.754Z,27.90
2018-06-04T12:05:17.847Z,28.00
2018-06-04T12:07:50.846Z,28.00
2018-06-04T12:10:23.838Z,28.20
2018-06-04T12:12:56.856Z,28.40
2018-06-04T12:15:29.838Z,28.60
2018-06-04T12:18:02.832Z,28.60
2018-06-04T12:20:35.817Z,28.70
2018-06-04T12:23:08.861Z,28.80
2018-06-04T12:25:42.946Z,28.80
2018-06-04T12:28:16.009Z,28.70
2018-06-04T12:30:48.946Z,28.60
2018-06-04T12:33:21.957Z,28.60
2018-06-04T12:35:55.016Z,28.60
2018-06-04T12:38:28.050Z,28.60
2018-06-04T12:41:01.047Z,28.40
2018-06-04T12:43:34.096Z,28.40
2018-06-04T12:46:07.086Z,28.40
2018-06-04T12:48:40.093Z,28.40
2018-06-04T12:51:13.098Z,28.50
2018-06-04T12:53:46.117Z,28.60
2018-06-04T12:56:19.106Z,28.70
2018-06-04T12:58:52.093Z,28.80
2018-06-04T13:01:25.110Z,29.00
2018-06-04T13:03:58.161Z,29.10
2018-06-04T13:06:31.158Z,29.10
2018-06-04T13:09:06.081Z,29.20
2018-06-04T13:11:39.082Z,29.20
2018-06-04T13:14:12.127Z,29.20
2018-06-04T13:16:45.110Z,29.30
2018-06-04T13:19:18.106Z,29.40
2018-06-04T13:21:51.109Z,29.20
2018-06-04T13:24:24.113Z,29.20
2018-06-04T13:26:57.106Z,29.20
2018-06-04T13:29:30.117Z,29.30
2018-06-04T13:32:03.116Z,29.50
2018-06-04T13:34:36.158Z,29.60
2018-06-04T13:37:09.154Z,29.60
2018-06-04T13:39:42.163Z,29.80
2018-06-04T13:42:15.179Z,29.80
2018-06-04T13:44:48.198Z,29.70
2018-06-04T13:47:21.182Z,29.50
2018-06-04T13:49:54.326Z,29.50
2018-06-04T13:52:27.317Z,29.60
2018-06-04T13:55:00.328Z,29.70
2018-06-04T13:57:33.332Z,29.70
2018-06-04T14:00:06.355Z,29.70
2018-06-04T14:02:39.350Z,29.60
2018-06-04T14:05:12.375Z,29.60
2018-06-04T14:07:45.354Z,29.60
2018-06-04T14:10:18.355Z,29.60
2018-06-04T14:12:51.343Z,29.50
2018-06-04T14:15:24.398Z,29.60
2018-06-04T14:17:57.422Z,29.90
2018-06-04T14:20:30.439Z,30.10
2018-06-04T14:23:03.438Z,30.20
2018-06-04T14:25:36.455Z,30.20
2018-06-04T14:28:09.470Z,30.10
2018-06-04T14:30:42.498Z,29.90
2018-06-04T14:33:15.537Z,30.10
2018-06-04T14:35:48.550Z,30.20
2018-06-04T14:38:21.537Z,30.10
2018-06-04T14:40:54.613Z,29.90
2018-06-04T14:46:00.438Z,29.60
2018-06-04T14:51:06.282Z,29.60
2018-06-04T14:53:39.277Z,29.70
2018-06-04T14:56:12.329Z,29.70
2018-06-04T14:58:45.317Z,29.70
2018-06-04T15:01:18.353Z,29.60
2018-06-04T15:03:51.332Z,29.50
2018-06-04T15:06:24.750Z,29.50
2018-06-04T15:08:57.758Z,29.60
2018-06-04T15:11:30.802Z,29.60
2018-06-04T15:14:03.835Z,29.60
2018-06-04T15:16:36.851Z,29.60
2018-06-04T15:19:09.830Z,29.60
2018-06-04T15:21:42.815Z,29.50
2018-06-04T15:24:15.815Z,29.40
2018-06-04T15:26:48.821Z,29.30
2018-06-04T15:29:21.814Z,29.10
2018-06-04T15:31:54.833Z,29.10
2018-06-04T15:34:27.819Z,29.10
2018-06-04T15:37:00.814Z,29.10
2018-06-04T15:42:06.703Z,29.20
2018-06-04T15:44:39.690Z,29.10
2018-06-04T15:47:12.688Z,29.00
2018-06-04T15:49:45.673Z,28.90
2018-06-04T15:52:18.702Z,29.00
2018-06-04T15:54:51.686Z,29.00
2018-06-04T15:57:24.694Z,28.90
2018-06-04T15:59:57.693Z,28.90
2018-06-04T16:02:30.738Z,29.00
2018-06-04T16:07:36.558Z,29.00
2018-06-04T16:10:09.542Z,29.00
2018-06-04T16:12:42.563Z,28.80
2018-06-04T16:15:15.552Z,28.90
2018-06-04T16:17:48.558Z,28.90
2018-06-04T16:20:21.542Z,28.90
2018-06-04T16:22:54.600Z,28.80
2018-06-04T16:25:27.610Z,28.90
2018-06-04T16:28:00.634Z,29.00
2018-06-04T16:30:33.699Z,29.00
2018-06-04T16:33:06.704Z,29.10
2018-06-04T16:35:39.706Z,29.10
2018-06-04T16:40:45.572Z,29.10
2018-06-04T16:43:18.554Z,29.10
2018-06-04T16:45:51.554Z,29.10
2018-06-04T16:48:24.612Z,28.80
2018-06-04T16:50:57.604Z,28.80
2018-06-04T16:53:30.669Z,28.70
2018-06-04T16:56:03.655Z,28.60
2018-06-04T16:58:36.727Z,28.70
2018-06-04T17:01:09.751Z,28.60
2018-06-04T17:03:42.765Z,28.50
2018-06-04T17:06:15.779Z,28.50
2018-06-04T17:08:48.815Z,28.40
2018-06-04T17:11:21.830Z,28.20
2018-06-04T17:13:54.865Z,28.10
2018-06-04T17:16:27.865Z,28.00
2018-06-04T17:19:00.897Z,28.00
2018-06-04T17:21:33.934Z,27.80
2018-06-04T17:24:06.942Z,27.70
2018-06-04T17:26:39.941Z,27.50
2018-06-04T17:29:12.970Z,27.30
2018-06-04T17:31:45.974Z,27.20
2018-06-04T17:34:18.983Z,27.10
2018-06-04T17:36:51.965Z,27.10
2018-06-04T17:39:24.986Z,26.90
2018-06-04T17:41:57.986Z,26.70
2018-06-04T17:44:31.038Z,26.50
2018-06-04T17:47:04.053Z,26.40
2018-06-04T17:49:37.185Z,26.40
2018-06-04T17:52:10.242Z,26.30
2018-06-04T17:54:43.254Z,26.30
2018-06-04T17:57:16.245Z,26.20
2018-06-04T17:59:49.273Z,26.20
2018-06-04T18:02:23.314Z,26.10
2018-06-04T18:04:56.318Z,26.00
2018-06-04T18:07:29.335Z,25.90
2018-06-04T18:10:02.390Z,25.80
2018-06-04T18:12:35.382Z,25.70
2018-06-04T18:15:08.426Z,25.70
2018-06-04T18:17:41.467Z,25.60
2018-06-04T18:20:14.500Z,25.60
2018-06-04T18:22:47.556Z,25.50
2018-06-04T18:25:20.596Z,25.50
2018-06-04T18:27:53.670Z,25.40
2018-06-04T18:30:26.793Z,25.30
2018-06-04T18:32:59.801Z,25.20
2018-06-04T18:35:32.910Z,25.10
2018-06-04T18:38:05.902Z,25.00
2018-06-04T18:40:38.925Z,24.90
2018-06-04T18:43:11.944Z,24.90
2018-06-04T18:45:44.954Z,24.80
2018-06-04T18:48:17.984Z,24.80
2018-06-04T18:50:51.001Z,24.70
2018-06-04T18:53:23.993Z,24.60
2018-06-04T18:55:57.011Z,24.50
2018-06-04T18:58:30.032Z,24.50
2018-06-04T19:01:03.068Z,24.40
2018-06-04T19:03:36.066Z,24.40
2018-06-04T19:06:09.074Z,24.20
2018-06-04T19:08:42.111Z,24.10
2018-06-04T19:11:15.114Z,24.10
2018-06-04T19:13:48.106Z,24.00
2018-06-04T19:16:21.213Z,23.90
2018-06-04T19:18:54.203Z,23.90
2018-06-04T19:21:27.242Z,23.80
2018-06-04T19:24:01.271Z,23.70
2018-06-04T19:26:34.291Z,23.60
2018-06-04T19:31:40.101Z,23.50
2018-06-04T19:34:13.225Z,23.40
2018-06-04T19:36:46.246Z,23.30
2018-06-04T19:39:19.262Z,23.20
2018-06-04T19:41:52.257Z,23.10
2018-06-04T19:44:25.401Z,23.10
2018-06-04T19:46:58.432Z,23.00
2018-06-04T19:49:31.491Z,22.90
2018-06-04T19:52:04.498Z,22.80
2018-06-04T19:54:37.532Z,22.80
2018-06-04T19:57:10.554Z,22.70
2018-06-04T19:59:43.562Z,22.50
2018-06-04T20:04:49.486Z,22.40
2018-06-04T20:07:23.531Z,22.30
2018-06-04T20:09:56.840Z,22.20
2018-06-04T20:15:02.666Z,22.00
2018-06-04T20:17:35.710Z,21.90
2018-06-04T20:20:09.050Z,21.80
2018-06-04T20:22:42.053Z,21.70
2018-06-04T20:25:15.051Z,21.60
2018-06-04T20:27:48.105Z,21.60
2018-06-04T20:30:21.270Z,21.50
2018-06-04T20:32:54.238Z,21.50
2018-06-04T20:35:27.229Z,21.40
2018-06-04T20:38:00.409Z,21.30
2018-06-04T20:40:33.450Z,21.20
2018-06-04T20:43:06.418Z,21.10
2018-06-04T20:45:39.421Z,21.10
2018-06-04T20:48:12.435Z,21.00
2018-06-04T20:50:45.422Z,21.00
2018-06-04T20:53:18.425Z,20.90
2018-06-04T20:55:51.399Z,20.90
2018-06-04T20:58:24.479Z,20.80
2018-06-04T21:00:57.492Z,20.80
2018-06-04T21:03:30.553Z,20.70
2018-06-04T21:06:03.624Z,20.70
2018-06-04T21:08:36.640Z,20.70
2018-06-04T21:11:09.626Z,20.70
2018-06-04T21:13:42.635Z,20.70
2018-06-04T21:16:15.637Z,20.60
2018-06-04T21:18:48.666Z,20.60
2018-06-04T21:21:21.657Z,20.50
2018-06-04T21:23:54.682Z,20.50
2018-06-04T21:26:27.662Z,20.40
2018-06-04T21:29:00.674Z,20.40
2018-06-04T21:31:33.670Z,20.30
2018-06-04T21:34:06.677Z,20.30
2018-06-04T21:36:39.657Z,20.30
2018-06-04T21:39:12.674Z,20.30
2018-06-04T21:41:45.670Z,20.30
2018-06-04T21:44:18.672Z,20.30
2018-06-04T21:46:51.661Z,20.30
2018-06-04T21:49:24.700Z,20.20
2018-06-04T21:51:57.689Z,20.20
2018-06-04T21:54:30.709Z,20.30
2018-06-04T21:57:03.736Z,20.30
2018-06-04T21:59:36.713Z,20.30
2018-06-04T22:02:09.706Z,20.30
2018-06-04T22:04:42.695Z,20.30
2018-06-04T22:07:15.682Z,20.20
2018-06-04T22:09:48.697Z,20.30
2018-06-04T22:12:21.693Z,20.20
2018-06-04T22:14:54.736Z,20.20
2018-06-04T22:17:27.826Z,20.10
2018-06-04T22:20:00.817Z,20.10
2018-06-04T22:22:33.821Z,20.10
2018-06-04T22:25:06.838Z,20.10
2018-06-04T22:27:39.815Z,20.10
2018-06-04T22:30:12.812Z,20.10
2018-06-04T22:32:45.797Z,20.10
2018-06-04T22:35:18.791Z,20.10
2018-06-04T22:37:51.802Z,20.00
2018-06-04T22:40:25.106Z,19.90
2018-06-04T22:42:58.098Z,19.90
2018-06-04T22:45:31.093Z,19.80
2018-06-04T22:48:04.093Z,19.70
2018-06-04T22:50:37.105Z,19.60
2018-06-04T22:53:10.090Z,19.50
2018-06-04T22:55:43.118Z,19.50
2018-06-04T22:58:16.106Z,19.50
2018-06-04T23:00:49.119Z,19.50
2018-06-04T23:03:22.121Z,19.60
2018-06-04T23:05:55.139Z,19.60
2018-06-04T23:08:28.137Z,19.60
2018-06-04T23:11:01.161Z,19.60
2018-06-04T23:13:34.137Z,19.60
2018-06-04T23:16:07.147Z,19.60
2018-06-04T23:18:40.175Z,19.60
2018-06-04T23:21:13.174Z,19.60
2018-06-04T23:23:46.174Z,19.60
2018-06-04T23:26:19.194Z,19.60
2018-06-04T23:28:52.201Z,19.50
2018-06-04T23:31:25.228Z,19.50
2018-06-04T23:33:58.213Z,19.50
2018-06-04T23:36:31.247Z,19.50
2018-06-04T23:39:07.149Z,19.40
2018-06-04T23:41:40.146Z,19.40
2018-06-04T23:44:13.154Z,19.40
2018-06-04T23:46:46.154Z,19.40
2018-06-04T23:51:51.994Z,19.30
2018-06-04T23:54:24.985Z,19.30
2018-06-04T23:56:57.990Z,19.30
